Time;durP1;ratioP1;P1;durP2;ratioP2;P2;SDS_P1;SDS_P2;PMS_P1;PMS_P2;Temp;Humidity;BMP_temperature;BMP_pressure;BME280_temperature;BME280_humidity;BME280_pressure;Samples;Min_cycle;Max_cycle;Signal;HPM_P1;HPM_P2
2023/01/09 00:01:22;;;;;;;19.05;4.25;;;7.90;99.90;;;7.88;100.00;98471.22;4986297;28;20223;-76
2023/01/09 00:03:49;;;;;;;22.85;5.05;;;7.90;99.90;;;7.92;100.00;98471.16;4984094;28;20243;-76
2023/01/09 00:06:16;;;;;;;11.70;2.67;;;8.00;99.90;;;7.94;100.00;98472.00;4992129;28;20511;-76
2023/01/09 00:08:43;;;;;;;16.13;3.63;;;7.80;99.90;;;7.95;100.00;98471.13;4988493;28;20208;-76
2023/01/09 00:11:10;;;;;;;17.30;4.28;;;8.00;99.90;;;7.97;100.00;98474.59;4988653;28;20235;-76
2023/01/09 00:13:41;;;;;;;12.90;2.95;;;8.00;99.90;;;7.97;100.00;98469.34;4991014;28;20319;-76
2023/01/09 00:16:10;;;;;;;18.85;4.20;;;8.00;99.90;;;7.98;100.00;98464.94;4989397;28;20232;-76
2023/01/09 00:18:37;;;;;;;10.35;2.40;;;8.00;99.90;;;7.99;100.00;98464.06;4984939;28;20201;-75
2023/01/09 00:21:08;;;;;;;15.18;3.40;;;8.00;99.90;;;8.02;100.00;98464.03;4997200;28;20598;-75
2023/01/09 00:23:39;;;;;;;9.10;2.10;;;8.00;99.90;;;8.01;100.00;98460.53;4983290;28;20283;-76
2023/01/09 00:26:14;;;;;;;14.45;3.25;;;8.10;99.90;;;8.04;100.00;98470.16;4990601;28;20299;-76
2023/01/09 00:28:41;;;;;;;12.77;2.85;;;8.00;99.90;;;8.04;100.00;98456.97;4986572;28;20212;-75
2023/01/09 00:31:10;;;;;;;12.13;2.83;;;8.10;99.90;;;8.04;100.00;98462.25;4990509;28;20205;-79
2023/01/09 00:33:59;;;;;;;18.70;3.95;;;8.00;99.90;;;8.05;100.00;98465.75;4988858;28;20229;-76
2023/01/09 00:36:27;;;;;;;20.63;4.63;;;8.10;99.90;;;8.03;100.00;98452.59;4985560;28;20232;-76
2023/01/09 00:38:55;;;;;;;26.58;5.93;;;8.10;99.90;;;8.06;100.00;98468.38;4986940;28;20677;-77
2023/01/09 00:41:43;;;;;;;33.90;7.32;;;8.10;99.90;;;8.05;100.00;98464.00;4984093;28;20213;-77
2023/01/09 00:44:30;;;;;;;31.95;7.03;;;8.10;99.90;;;8.06;100.00;98465.72;4972425;28;20271;-75
2023/01/09 00:47:06;;;;;;;26.17;5.82;;;8.10;99.90;;;8.07;100.00;98467.47;4977595;28;20209;-78
2023/01/09 00:49:36;;;;;;;37.28;8.07;;;8.10;99.90;;;8.07;100.00;98466.59;4972057;28;20205;-75
2023/01/09 00:52:09;;;;;;;31.95;7.03;;;8.10;99.90;;;8.06;100.00;98475.38;4977722;28;20220;-75
2023/01/09 00:54:38;;;;;;;48.10;10.32;;;8.10;99.90;;;8.06;100.00;98488.56;4970008;28;20260;-76
2023/01/09 00:57:09;;;;;;;20.40;4.45;;;8.10;99.90;;;8.06;100.00;98492.06;4995223;28;20322;-74
2023/01/09 00:59:41;;;;;;;22.55;4.95;;;8.10;99.90;;;8.06;100.00;98483.28;4979806;28;20268;-77
2023/01/09 01:02:08;;;;;;;32.17;7.03;;;8.00;99.90;;;8.06;100.00;98481.53;4985623;28;20204;-76
2023/01/09 01:07:41;;;;;;;39.88;8.73;;;8.10;99.90;;;8.08;100.00;98492.03;4943627;28;1118122;-76
2023/01/09 01:10:24;;;;;;;12.10;2.72;;;8.10;99.90;;;8.11;100.00;98508.66;4985959;28;20626;-76
2023/01/09 01:12:52;;;;;;;11.70;2.75;;;8.10;99.90;;;8.11;100.00;98499.91;4987337;28;20208;-76
2023/01/09 01:15:22;;;;;;;16.40;3.65;;;8.10;99.90;;;8.08;100.00;98495.53;4984878;28;20807;-76
2023/01/09 01:17:49;;;;;;;11.65;2.67;;;8.10;99.90;;;8.08;100.00;98499.94;4990225;28;20251;-76
2023/01/09 01:20:17;;;;;;;15.55;3.45;;;8.10;99.90;;;8.07;100.00;98503.44;4990197;28;20205;-77
2023/01/09 01:22:45;;;;;;;26.58;5.80;;;8.10;99.90;;;8.06;100.00;98505.22;4989661;28;20274;-78
2023/01/09 01:25:16;;;;;;;23.98;5.38;;;8.10;99.90;;;8.04;100.00;98501.72;4983478;28;20256;-77
2023/01/09 01:27:44;;;;;;;17.98;4.05;;;8.10;99.90;;;8.00;100.00;98508.78;4986257;28;20232;-76
2023/01/09 01:30:14;;;;;;;15.30;3.55;;;8.10;99.90;;;8.00;100.00;98505.28;4994763;28;20254;-76
2023/01/09 01:32:41;;;;;;;19.95;4.38;;;8.00;99.90;;;8.04;100.00;98509.63;4989367;28;20244;-77
2023/01/09 01:35:09;;;;;;;18.45;4.13;;;8.10;99.90;;;8.07;100.00;98517.47;4992103;28;20221;-78
2023/01/09 01:37:39;;;;;;;26.95;6.22;;;8.10;99.90;;;8.15;100.00;98526.16;4984594;28;20236;-77
2023/01/09 01:40:13;;;;;;;18.13;4.05;;;8.20;99.90;;;8.17;100.00;98532.28;4983526;28;20268;-77
2023/01/09 01:42:52;;;;;;;11.35;2.70;;;8.20;99.90;;;8.18;100.00;98546.31;5002705;28;20314;-77
2023/01/09 01:45:29;;;;;;;17.48;3.92;;;8.20;99.90;;;8.30;100.00;98556.72;4988800;28;20296;-77
2023/01/09 01:48:08;;;;;;;14.50;3.20;;;8.30;99.90;;;8.26;100.00;98561.13;4994247;28;20210;-76
2023/01/09 01:50:43;;;;;;;20.15;4.40;;;8.30;99.90;;;8.22;100.00;98577.00;4987088;28;20303;-76
2023/01/09 01:53:25;;;;;;;17.52;3.90;;;8.20;99.90;;;8.15;100.00;98572.69;4986547;28;20306;-77
2023/01/09 01:56:21;;;;;;;11.85;2.75;;;8.20;99.90;;;8.15;100.00;98576.19;4986042;28;20303;-76
2023/01/09 01:59:04;;;;;;;16.75;3.67;;;8.20;99.90;;;8.16;100.00;98583.19;4994670;28;20232;-77
2023/01/09 02:01:32;;;;;;;16.23;3.70;;;8.20;99.90;;;8.16;100.00;98587.59;4991743;28;20208;-77
2023/01/09 02:04:01;;;;;;;15.73;3.60;;;8.20;99.90;;;8.12;100.00;98568.31;4985705;28;20232;-76
2023/01/09 02:06:29;;;;;;;18.80;4.28;;;8.20;99.90;;;8.10;100.00;98575.38;4989353;28;20208;-78
2023/01/09 02:09:03;;;;;;;17.50;3.92;;;8.10;99.90;;;8.08;100.00;98574.50;4982175;28;20315;-77
2023/01/09 02:11:30;;;;;;;8.68;2.10;;;8.10;99.90;;;8.06;100.00;98557.00;4985867;28;20236;-78
2023/01/09 02:13:59;;;;;;;13.35;3.17;;;8.10;99.90;;;7.98;100.00;98551.81;4984031;28;20252;-77
2023/01/09 02:17:01;;;;;;;16.73;3.83;;;8.00;99.90;;;7.99;100.00;98566.72;4989717;28;20411;-77
2023/01/09 02:20:14;;;;;;;10.43;2.40;;;8.00;99.90;;;7.97;100.00;98561.47;4988557;28;20278;-76
2023/01/09 02:22:51;;;;;;;16.42;3.70;;;8.00;99.90;;;7.99;100.00;98561.44;4990532;28;20204;-77
2023/01/09 02:25:45;;;;;;;12.93;2.85;;;8.00;99.90;;;8.00;100.00;98563.19;4992858;28;20208;-76
2023/01/09 02:28:59;;;;;;;19.95;4.45;;;8.00;99.90;;;8.02;100.00;98572.81;4986642;28;20295;-77
2023/01/09 02:32:09;;;;;;;13.45;3.08;;;8.10;99.90;;;8.08;100.00;98592.06;4985973;28;20224;-77
2023/01/09 02:34:57;;;;;;;21.40;4.75;;;8.10;99.90;;;8.09;100.00;98599.94;4978911;28;20229;-77
2023/01/09 02:37:51;;;;;;;19.08;4.22;;;8.10;99.90;;;8.14;100.00;98599.91;4985280;28;20322;-75
2023/01/09 02:40:43;;;;;;;11.95;2.78;;;8.10;99.90;;;8.22;100.00;98621.75;4973259;28;20228;-76
2023/01/09 02:43:12;;;;;;;26.13;5.57;;;8.20;99.90;;;8.25;100.00;98642.78;4976819;28;20224;-76
2023/01/09 02:45:39;;;;;;;16.85;3.72;;;8.30;99.90;;;8.26;100.00;98649.78;4981517;28;20236;-77
2023/01/09 02:48:10;;;;;;;20.65;4.63;;;8.30;99.90;;;8.24;100.00;98670.88;4985843;28;20208;-76
2023/01/09 02:51:11;;;;;;;9.95;2.30;;;8.30;99.90;;;8.24;100.00;98688.44;4982357;28;20208;-76
2023/01/09 02:54:10;;;;;;;44.50;9.75;;;8.30;99.90;;;8.43;100.00;98720.75;4977017;28;20224;-77
2023/01/09 02:57:02;;;;;;;19.13;4.22;;;8.90;99.90;;;8.45;100.00;98730.41;4966870;28;20233;-77
2023/01/09 02:59:45;;;;;;;21.90;4.72;;;8.40;99.90;;;8.48;100.00;98740.03;4982641;28;20327;-77
2023/01/09 03:02:33;;;;;;;16.38;3.67;;;8.50;99.90;;;8.39;100.00;98741.00;4978437;28;20240;-77
2023/01/09 03:05:22;;;;;;;33.90;7.43;;;8.40;99.90;;;8.36;100.00;98740.16;4999981;28;20553;-77
2023/01/09 03:08:12;;;;;;;33.38;7.15;;;8.30;99.90;;;8.29;100.00;98734.91;4981431;28;20216;-77
2023/01/09 03:10:49;;;;;;;21.95;4.82;;;8.30;99.90;;;8.25;100.00;98749.00;4962917;28;20287;-77
2023/01/09 03:13:21;;;;;;;35.30;7.53;;;8.30;99.90;;;8.25;100.00;98753.38;4979059;28;20239;-76
2023/01/09 03:15:54;;;;;;;17.88;3.95;;;8.30;99.90;;;8.17;100.00;98742.91;4978703;28;20208;-77
2023/01/09 03:18:24;;;;;;;15.88;3.50;;;8.20;99.90;;;8.29;100.00;98763.88;4984567;28;20224;-77
2023/01/09 03:20:53;;;;;;;27.55;5.95;;;8.30;99.90;;;8.29;100.00;98749.84;4967120;28;20219;-76
2023/01/09 03:23:20;;;;;;;22.17;4.68;;;8.30;99.90;;;8.29;100.00;98744.56;4979976;28;20295;-76
2023/01/09 03:25:47;;;;;;;28.30;6.00;;;8.30;99.90;;;8.21;100.00;98728.84;4984839;28;20239;-76
2023/01/09 03:28:30;;;;;;;20.73;4.50;;;8.20;99.90;;;8.28;100.00;98741.06;4983195;28;20208;-75
2023/01/09 03:30:57;;;;;;;16.27;3.55;;;8.30;99.90;;;8.25;100.00;98746.34;4984469;28;20303;-76
2023/01/09 03:33:24;;;;;;;23.20;4.93;;;8.30;99.90;;;8.23;100.00;98729.69;4982467;28;20295;-75
2023/01/09 03:35:51;;;;;;;19.92;4.25;;;8.20;99.90;;;8.20;100.00;98732.34;4987019;28;20228;-76
2023/01/09 03:38:18;;;;;;;22.50;4.88;;;8.20;99.90;;;8.21;100.00;98727.97;4989783;28;20300;-77
2023/01/09 03:40:46;;;;;;;20.73;4.50;;;8.20;99.90;;;8.20;100.00;98726.22;4991464;28;20263;-76
2023/01/09 03:43:13;;;;;;;22.45;4.88;;;8.20;99.90;;;8.09;100.00;98709.63;4989695;28;20303;-76
2023/01/09 03:45:42;;;;;;;20.00;4.40;;;8.10;99.90;;;8.06;100.00;98720.19;4986005;28;20263;-77
2023/01/09 03:48:09;;;;;;;15.02;3.38;;;8.10;99.90;;;8.13;100.00;98727.16;4982962;28;20215;-78
2023/01/09 03:50:36;;;;;;;14.95;3.28;;;8.10;99.90;;;8.21;100.00;98728.84;4987167;28;20205;-77
2023/01/09 03:53:03;;;;;;;28.95;5.97;;;8.20;99.90;;;8.18;100.00;98739.38;4979943;28;20303;-77
2023/01/09 03:55:30;;;;;;;20.77;4.40;;;8.20;99.90;;;8.06;100.00;98739.50;4986504;28;20217;-77
2023/01/09 03:57:57;;;;;;;14.65;3.08;;;8.10;99.90;;;8.08;100.00;98750.88;4984243;28;20348;-76
2023/01/09 04:00:27;;;;;;;28.00;5.85;;;8.10;99.90;;;8.09;100.00;98760.53;4984017;28;20204;-80
2023/01/09 04:02:54;;;;;;;15.70;3.45;;;8.00;99.90;;;8.03;100.00;98765.84;4983217;28;20371;-77
2023/01/09 04:05:21;;;;;;;20.50;4.35;;;8.10;99.90;;;8.04;100.00;98770.22;4989855;28;20240;-76
2023/01/09 04:07:48;;;;;;;16.23;3.50;;;8.10;99.90;;;8.05;100.00;98769.34;4985447;28;20266;-75
2023/01/09 04:10:16;;;;;;;24.05;5.13;;;8.10;99.90;;;8.08;100.00;98778.97;4986324;28;20276;-76
2023/01/09 04:12:43;;;;;;;22.17;4.80;;;8.10;99.90;;;8.17;100.00;98800.84;4987113;28;20232;-76
2023/01/09 04:15:13;;;;;;;28.55;6.05;;;8.20;99.90;;;8.08;100.00;98800.91;4992328;28;20269;-77
2023/01/09 04:17:40;;;;;;;36.10;7.65;;;8.10;99.90;;;8.04;100.00;98812.34;4988898;28;20299;-77
2023/01/09 04:20:08;;;;;;;16.17;3.42;;;8.10;99.90;;;7.96;100.00;98822.03;4987587;28;20279;-77
2023/01/09 04:22:36;;;;;;;32.55;6.78;;;8.00;99.90;;;7.96;100.00;98827.31;4985659;28;20283;-77
2023/01/09 04:25:04;;;;;;;29.23;6.13;;;8.00;99.90;;;8.00;100.00;98824.66;4982883;28;20308;-76
2023/01/09 04:27:31;;;;;;;22.55;4.90;;;8.10;99.90;;;7.91;100.00;98824.72;4988434;28;20244;-76
2023/01/09 04:29:58;;;;;;;11.77;2.60;;;8.00;99.90;;;7.94;100.00;98818.56;4980824;28;20236;-76
2023/01/09 04:32:26;;;;;;;13.13;2.90;;;8.00;99.90;;;8.01;100.00;98815.00;4989124;28;20299;-77
2023/01/09 04:34:54;;;;;;;16.30;3.50;;;8.00;99.90;;;7.94;100.00;98814.16;4983558;28;20253;-76
2023/01/09 04:37:22;;;;;;;18.60;3.97;;;8.00;99.90;;;8.08;100.00;98805.28;4988676;28;20232;-78
2023/01/09 04:39:51;;;;;;;18.13;3.95;;;7.90;99.90;;;8.06;100.00;98814.97;4988564;28;20204;-77
2023/01/09 04:42:18;;;;;;;17.55;3.75;;;8.10;99.90;;;8.03;100.00;98821.13;4985827;28;20274;-77
2023/01/09 04:44:45;;;;;;;23.15;4.90;;;8.00;99.90;;;8.04;99.36;98817.59;4978726;28;20259;-77
2023/01/09 04:49:44;;;;;;;10.25;2.33;;;8.10;99.90;;;8.09;98.15;98807.91;4979577;28;20228;-78
2023/01/09 04:52:11;;;;;;;14.52;3.13;;;8.10;99.90;;;8.13;97.28;98796.47;4987068;28;20205;-78
2023/01/09 04:54:38;;;;;;;10.82;2.45;;;8.10;99.90;;;8.05;96.93;98790.41;4977250;28;20446;-78
2023/01/09 04:57:05;;;;;;;13.98;3.10;;;8.10;99.90;;;7.98;97.02;98789.56;4984263;28;20275;-78
2023/01/09 04:59:32;;;;;;;10.20;2.33;;;8.00;99.90;;;8.02;96.15;98798.31;4985793;28;20316;-77
2023/01/09 05:01:59;;;;;;;12.15;2.70;;;8.00;99.90;;;8.10;94.42;98774.56;4983543;28;20236;-78
2023/01/09 05:04:27;;;;;;;19.40;4.20;;;8.10;99.90;;;8.05;93.73;98776.34;4983498;28;20209;-79
2023/01/09 05:06:55;;;;;;;10.30;2.30;;;8.10;99.90;;;7.97;93.95;98781.69;4983991;28;20208;-78
2023/01/09 05:09:26;;;;;;;9.15;2.08;;;8.00;99.90;;;7.84;95.47;98788.78;4991588;28;20604;-77
2023/01/09 05:11:53;;;;;;;8.98;2.05;;;7.90;99.90;;;7.87;94.41;98798.41;4992522;28;20212;-78
2023/01/09 05:14:20;;;;;;;10.63;2.38;;;7.90;99.90;;;7.80;93.74;98773.00;4996966;28;20212;-78
2023/01/09 05:16:47;;;;;;;12.85;2.88;;;7.90;99.90;;;7.61;93.68;98775.72;4985378;28;20228;-77
2023/01/09 05:19:14;;;;;;;9.27;2.13;;;7.70;99.90;;;7.64;93.00;98765.19;4988413;28;20259;-78
2023/01/09 05:21:41;;;;;;;10.38;2.35;;;7.70;99.90;;;7.55;92.48;98753.84;4976664;28;20240;-77
2023/01/09 05:24:08;;;;;;;14.48;3.13;;;7.60;99.90;;;7.46;91.69;98730.22;4982232;28;20236;-79
2023/01/09 05:26:35;;;;;;;20.33;4.43;;;7.50;99.90;;;7.41;91.61;98730.25;4988822;28;20205;-79
2023/01/09 05:29:02;;;;;;;11.27;2.60;;;7.50;99.90;;;7.47;90.61;98738.13;4982183;28;20221;-78
2023/01/09 05:31:29;;;;;;;8.95;2.03;;;7.50;99.90;;;7.35;91.25;98736.44;4989005;28;20298;-79
2023/01/09 05:33:58;;;;;;;9.25;2.10;;;7.40;99.90;;;7.31;91.95;98755.72;4993478;28;20209;-78
2023/01/09 05:36:25;;;;;;;12.38;2.95;;;7.40;99.90;;;7.41;91.11;98748.66;4990736;28;20240;-78
2023/01/09 05:38:52;;;;;;;12.05;2.70;;;7.40;99.90;;;7.27;91.79;98756.63;4984616;28;20319;-79
2023/01/09 05:41:19;;;;;;;12.50;2.78;;;7.30;99.90;;;7.01;93.53;98772.50;4990087;28;20213;-78
2023/01/09 05:43:47;;;;;;;10.57;2.47;;;7.10;99.90;;;7.07;93.68;98801.38;4982591;28;20209;-78
2023/01/09 05:46:15;;;;;;;16.70;3.60;;;7.10;99.90;;;7.06;94.45;98820.66;4990699;28;20201;-81
2023/01/09 05:48:43;;;;;;;25.52;5.55;;;7.10;99.90;;;7.04;95.20;98827.69;5001072;28;20235;-80
2023/01/09 05:51:11;;;;;;;14.98;3.33;;;7.10;99.90;;;7.15;94.79;98834.66;4997960;28;20236;-81
2023/01/09 05:53:38;;;;;;;14.52;3.22;;;7.20;99.90;;;7.24;94.20;98818.88;4998326;28;20213;-81
2023/01/09 05:56:06;;;;;;;14.57;3.28;;;7.30;99.90;;;7.17;94.74;98825.91;4995114;28;20213;-80
2023/01/09 05:58:33;;;;;;;15.98;3.55;;;7.20;99.90;;;7.13;95.18;98823.28;4993066;28;20254;-80
2023/01/09 06:01:00;;;;;;;16.23;3.58;;;7.20;99.90;;;7.12;95.78;98834.69;4993189;28;20212;-80
2023/01/09 06:03:27;;;;;;;14.73;3.42;;;7.10;99.90;;;7.23;95.34;98839.03;4987259;28;20621;-77
2023/01/09 06:05:54;;;;;;;14.05;3.17;;;7.30;99.90;;;7.17;95.71;98823.25;4994400;28;20208;-78
2023/01/09 06:08:21;;;;;;;11.55;2.63;;;7.20;99.90;;;7.07;96.97;98843.44;4996218;28;20251;-79
2023/01/09 06:10:48;;;;;;;12.10;2.70;;;7.10;99.90;;;7.06;97.73;98833.81;4991520;28;20208;-78
2023/01/09 06:13:15;;;;;;;16.02;3.50;;;7.10;99.90;;;7.09;97.87;98856.59;4989735;28;20201;-78
2023/01/09 06:15:43;;;;;;;13.60;3.03;;;7.20;99.90;;;7.13;98.37;98865.34;4987400;28;20267;-78
2023/01/09 06:18:10;;;;;;;11.45;2.63;;;7.20;99.90;;;7.11;98.67;98873.22;4998169;28;20232;-79
2023/01/09 06:20:37;;;;;;;10.60;2.40;;;7.10;99.90;;;7.09;99.17;98877.63;4991869;28;20271;-78
2023/01/09 06:23:04;;;;;;;13.88;3.03;;;7.10;99.90;;;7.06;99.21;98872.38;4990800;28;20208;-78
2023/01/09 06:25:31;;;;;;;13.68;3.10;;;7.10;99.90;;;7.04;100.00;98875.00;4984678;28;20209;-79
2023/01/09 06:27:58;;;;;;;11.75;2.60;;;7.10;99.90;;;7.10;100.00;98887.25;4978974;28;20220;-79
2023/01/09 06:30:25;;;;;;;16.70;3.70;;;7.20;99.90;;;7.04;100.00;98869.75;4992667;28;20216;-78
2023/01/09 06:32:52;;;;;;;15.02;3.20;;;7.10;99.90;;;7.30;98.63;98898.59;4990598;28;20220;-78
2023/01/09 06:35:21;;;;;;;14.95;3.25;;;7.30;99.90;;;7.34;97.93;98891.56;4995012;28;20200;-78
2023/01/09 06:37:48;;;;;;;15.90;3.35;;;7.40;99.90;;;7.18;98.98;98888.09;4986085;28;20252;-78
2023/01/09 06:40:17;;;;;;;11.57;2.55;;;7.20;99.90;;;7.15;99.38;98892.50;4986528;28;20663;-78
2023/01/09 06:42:45;;;;;;;8.98;2.08;;;7.20;99.90;;;7.09;100.00;98896.00;4989669;28;20263;-79
2023/01/09 06:45:13;;;;;;;12.13;2.65;;;7.10;99.90;;;7.11;100.00;98894.25;4992507;28;20683;-78
2023/01/09 06:47:40;;;;;;;11.45;2.58;;;7.20;99.90;;;7.09;100.00;98901.28;4992189;28;20235;-78
2023/01/09 06:50:08;;;;;;;18.75;4.05;;;7.20;99.90;;;7.23;99.88;98906.50;4983242;28;20213;-78
2023/01/09 06:52:36;;;;;;;14.77;3.22;;;7.30;99.90;;;7.17;100.00;98902.13;4974735;28;20237;-78
2023/01/09 06:55:04;;;;;;;11.45;2.58;;;7.30;99.90;;;7.13;100.00;98903.00;4992828;28;20204;-78
2023/01/09 06:57:31;;;;;;;20.05;4.25;;;7.20;99.90;;;7.06;100.00;98909.16;4987826;28;20263;-78
2023/01/09 06:59:58;;;;;;;11.35;2.50;;;7.10;99.90;;;7.09;100.00;98921.41;4990836;28;20212;-78
2023/01/09 07:02:25;;;;;;;11.15;2.53;;;7.20;99.90;;;7.14;100.00;98922.28;4977307;28;20665;-78
2023/01/09 07:04:52;;;;;;;14.02;3.08;;;7.20;99.90;;;7.19;100.00;98915.28;4973663;28;20211;-76
2023/01/09 07:07:21;;;;;;;16.67;3.53;;;7.30;99.90;;;7.15;100.00;98917.03;4982380;28;20204;-77
2023/01/09 07:09:48;;;;;;;15.85;3.45;;;7.20;99.90;;;7.10;100.00;98904.78;4992266;28;20208;-77
2023/01/09 07:12:15;;;;;;;15.98;3.42;;;7.20;99.90;;;7.12;100.00;98924.03;4991961;28;20266;-77
2023/01/09 07:14:42;;;;;;;16.80;3.58;;;7.20;99.90;;;7.10;100.00;98931.06;4990085;28;20304;-79
2023/01/09 07:17:12;;;;;;;13.50;2.95;;;7.10;99.90;;;7.13;100.00;98937.19;4986817;28;20251;-76
2023/01/09 07:19:40;;;;;;;12.18;2.70;;;7.20;99.90;;;7.12;100.00;98939.81;4988903;28;20718;-76
2023/01/09 07:22:07;;;;;;;12.23;2.75;;;7.20;99.90;;;7.11;100.00;98938.94;4987894;28;20204;-77
2023/01/09 07:24:34;;;;;;;9.48;2.15;;;7.10;99.90;;;7.09;100.00;98939.81;4980329;28;20219;-78
2023/01/09 07:27:02;;;;;;;12.30;2.72;;;7.20;99.90;;;7.07;100.00;98935.44;4988260;28;20688;-78
2023/01/09 07:29:29;;;;;;;9.45;2.13;;;7.10;99.90;;;6.97;100.00;98941.56;4975790;28;20230;-78
2023/01/09 07:31:56;;;;;;;9.55;2.17;;;7.00;99.90;;;6.88;100.00;98943.34;4988462;28;20251;-78
2023/01/09 07:34:23;;;;;;;12.07;2.70;;;7.00;99.90;;;6.83;100.00;98950.34;4990869;28;20259;-77
2023/01/09 07:36:51;;;;;;;7.53;1.80;;;6.90;99.90;;;6.75;100.00;98952.97;4992993;28;20212;-77
2023/01/09 07:39:18;;;;;;;11.93;2.72;;;6.80;99.90;;;6.74;100.00;98956.47;4983849;28;20322;-77
2023/01/09 07:41:45;;;;;;;9.65;2.25;;;6.80;99.90;;;6.68;100.00;98959.97;4991358;28;20207;-77
2023/01/09 07:44:13;;;;;;;14.93;3.33;;;6.80;99.90;;;6.70;100.00;98957.34;4982660;28;20213;-77
2023/01/09 07:46:40;;;;;;;11.75;2.67;;;6.80;99.90;;;6.69;100.00;98956.47;4973358;28;20268;-76
2023/01/09 07:49:10;;;;;;;11.70;2.58;;;6.80;99.90;;;6.67;100.00;98967.84;4975696;28;20618;-76
2023/01/09 07:51:42;;;;;;;14.65;3.17;;;6.70;99.90;;;6.61;100.00;98973.09;4987043;28;20197;-76
2023/01/09 07:54:11;;;;;;;10.30;2.35;;;6.70;99.90;;;6.61;100.00;98975.72;4988804;28;20212;-76
2023/01/09 07:56:39;;;;;;;11.77;2.63;;;6.70;99.90;;;6.60;100.00;98977.47;4979492;28;20202;-76
2023/01/09 07:59:07;;;;;;;11.98;2.67;;;6.70;99.90;;;6.59;100.00;98978.34;4980586;28;20244;-76
2023/01/09 08:01:34;;;;;;;11.80;2.67;;;6.70;99.90;;;6.58;100.00;98975.72;4991107;28;20239;-77
2023/01/09 08:04:01;;;;;;;12.00;2.72;;;6.70;99.90;;;6.56;100.00;98970.47;4984715;28;20213;-76
2023/01/09 08:06:28;;;;;;;14.93;3.22;;;6.60;99.90;;;6.58;100.00;98966.09;4981265;28;20201;-76
2023/01/09 08:08:56;;;;;;;13.88;3.08;;;6.60;99.90;;;6.59;100.00;98980.09;4984517;28;20225;-78
2023/01/09 08:11:24;;;;;;;11.65;2.63;;;6.70;99.90;;;6.60;100.00;98977.47;4988530;28;20672;-77
2023/01/09 08:13:51;;;;;;;13.45;2.97;;;6.60;99.90;;;6.60;100.00;98972.22;4989360;28;20217;-77
2023/01/09 08:16:18;;;;;;;9.73;2.20;;;6.70;99.90;;;6.61;100.00;98967.84;4982254;28;20216;-77
2023/01/09 08:18:45;;;;;;;15.82;3.30;;;6.70;99.90;;;6.64;100.00;98973.09;4988832;28;20279;-76
2023/01/09 08:21:13;;;;;;;13.18;2.92;;;6.70;99.90;;;6.68;100.00;98966.97;4998241;28;20213;-77
2023/01/09 08:23:40;;;;;;;18.95;4.03;;;6.70;99.90;;;6.73;100.00;98963.47;4983446;28;20205;-76
2023/01/09 08:26:07;;;;;;;13.52;2.92;;;6.80;99.90;;;6.77;100.00;98963.47;4980121;28;20669;-76
2023/01/09 08:28:34;;;;;;;11.13;2.55;;;6.80;99.90;;;6.80;100.00;98961.72;4985759;28;20284;-76
2023/01/09 08:31:02;;;;;;;11.68;2.53;;;6.90;99.90;;;6.79;100.00;98967.84;4986828;28;20213;-77
2023/01/09 08:33:29;;;;;;;10.80;2.38;;;6.90;99.90;;;6.87;100.00;98975.75;4990701;28;20225;-77
2023/01/09 08:35:56;;;;;;;12.23;2.70;;;6.90;99.90;;;6.89;100.00;98974.88;4987401;28;20208;-77
2023/01/09 08:38:23;;;;;;;12.32;2.70;;;6.90;99.90;;;6.89;100.00;98972.25;4989033;28;20284;-76
2023/01/09 08:40:50;;;;;;;10.75;2.40;;;7.00;99.90;;;6.86;100.00;98971.38;4993318;28;20209;-76
2023/01/09 08:49:09;;;;;;;19.85;4.18;;;7.10;99.90;;;7.22;100.00;99000.28;4987982;28;20232;-77
2023/01/09 08:51:36;;;;;;;11.35;2.60;;;7.20;99.90;;;7.31;100.00;99000.25;4990271;28;20209;-77
2023/01/09 08:54:03;;;;;;;12.73;2.80;;;7.30;99.90;;;7.41;100.00;98998.50;4989184;28;20204;-77
2023/01/09 08:56:30;;;;;;;12.40;2.83;;;7.40;99.90;;;7.42;100.00;98994.13;4987564;28;20206;-77
2023/01/09 08:58:57;;;;;;;17.55;3.67;;;7.40;99.90;;;7.42;100.00;98989.72;4982523;28;20234;-77
2023/01/09 09:01:24;;;;;;;12.70;2.72;;;7.40;99.90;;;7.47;100.00;98995.84;4982493;28;20205;-77
2023/01/09 09:03:52;;;;;;;11.55;2.60;;;7.50;99.90;;;7.48;100.00;98992.34;4977359;28;20248;-76
2023/01/09 09:06:19;;;;;;;14.07;3.00;;;7.50;99.90;;;7.50;100.00;98994.97;4981157;28;20673;-78
2023/01/09 09:08:47;;;;;;;10.77;2.40;;;7.50;99.90;;;7.53;100.00;98985.31;4989170;28;20238;-77
2023/01/09 09:11:14;;;;;;;12.05;2.67;;;7.60;99.90;;;7.56;100.00;98987.94;4994005;28;20209;-77
2023/01/09 09:13:41;;;;;;;11.18;2.53;;;7.60;99.90;;;7.61;100.00;98980.03;4986684;28;20216;-78
2023/01/09 09:16:08;;;;;;;11.45;2.47;;;7.60;99.90;;;7.60;100.00;98988.81;4982217;28;20644;-77
2023/01/09 09:18:35;;;;;;;12.50;2.80;;;7.60;99.90;;;7.57;100.00;98984.44;4991627;28;20244;-77
2023/01/09 09:21:02;;;;;;;14.25;3.10;;;7.60;99.90;;;7.54;100.00;98992.34;4984762;28;20207;-77
2023/01/09 09:23:30;;;;;;;16.15;3.40;;;7.60;99.90;;;7.51;100.00;99008.13;4989222;28;20267;-77
2023/01/09 09:25:56;;;;;;;14.50;3.15;;;7.50;99.90;;;7.50;100.00;98997.59;4988127;28;20645;-76
2023/01/09 09:28:23;;;;;;;9.32;2.10;;;7.50;99.90;;;7.45;100.00;98997.63;4979094;28;20311;-78
2023/01/09 09:30:50;;;;;;;10.80;2.50;;;7.50;99.90;;;7.42;100.00;98999.38;4985333;28;20243;-77
2023/01/09 09:33:18;;;;;;;12.88;2.78;;;7.50;99.90;;;7.38;100.00;98998.50;4984861;28;20645;-77
2023/01/09 09:35:45;;;;;;;19.33;4.15;;;7.40;99.90;;;7.39;100.00;98995.88;4980211;28;20209;-77
2023/01/09 09:38:17;;;;;;;11.80;2.63;;;7.40;99.90;;;7.44;100.00;99008.13;4980829;28;20888;-76
2023/01/09 09:44:42;;;;;;;16.23;3.53;;;7.50;99.90;;;7.44;100.00;99000.25;4985354;28;20682;-77
2023/01/09 09:44:53;;;;;;;12.50;2.78;;;7.50;99.90;;;7.41;100.00;98998.50;4981725;28;20296;-78
2023/01/09 09:47:42;;;;;;;13.30;2.90;;;7.50;99.90;;;7.43;100.00;98999.38;4984938;28;20205;-77
2023/01/09 09:50:27;;;;;;;11.38;2.60;;;7.50;99.90;;;7.52;100.00;99003.75;4979941;28;20240;-78
2023/01/09 09:53:18;;;;;;;13.70;2.92;;;7.50;99.90;;;7.61;100.00;98990.56;4981665;28;20201;-77
2023/01/09 09:55:47;;;;;;;13.43;2.95;;;7.60;99.90;;;7.64;100.00;98990.56;4983415;28;20275;-77
2023/01/09 09:58:39;;;;;;;13.45;2.97;;;7.70;99.90;;;7.72;99.03;98981.78;4982809;28;20263;-77
2023/01/09 10:01:09;;;;;;;12.20;2.72;;;7.70;99.90;;;7.72;98.68;98976.50;5000130;28;20201;-77
2023/01/09 10:03:45;;;;;;;15.43;3.35;;;7.80;99.90;;;7.78;97.37;98982.63;4983041;28;20220;-77
2023/01/09 10:06:46;;;;;;;10.38;2.28;;;7.80;99.90;;;7.78;97.07;98970.34;4980547;28;20212;-78
2023/01/09 10:09:48;;;;;;;11.88;2.60;;;7.80;99.90;;;7.82;96.90;98973.88;4982190;28;20395;-78
2023/01/09 10:12:28;;;;;;;10.65;2.33;;;7.80;99.90;;;7.81;97.06;98975.63;4982996;28;20270;-78
2023/01/09 10:14:58;;;;;;;13.20;2.92;;;7.80;99.90;;;7.81;96.59;98980.91;4984319;28;20241;-79
2023/01/09 10:17:50;;;;;;;14.00;3.08;;;7.80;99.90;;;7.77;97.22;98967.72;4984738;28;20208;-77
2023/01/09 10:20:49;;;;;;;11.25;2.40;;;7.90;99.90;;;7.72;97.28;98984.41;4978401;28;20208;-78
2023/01/09 10:23:57;;;;;;;12.13;2.63;;;7.80;99.90;;;7.72;96.99;98987.03;4981290;28;20300;-78
2023/01/09 10:26:39;;;;;;;10.75;2.35;;;7.80;99.90;;;7.69;97.55;98996.69;4979397;28;20630;-78
2023/01/09 10:29:35;;;;;;;17.25;3.80;;;7.70;99.90;;;7.50;99.97;98998.47;4970029;28;20232;-77
2023/01/09 10:32:15;;;;;;;12.52;2.75;;;7.60;99.90;;;7.41;100.00;99011.66;4976109;28;20209;-78
2023/01/09 10:35:34;;;;;;;11.80;2.60;;;7.50;99.90;;;7.33;100.00;99029.19;4983267;28;20208;-77
2023/01/09 10:38:21;;;;;;;12.32;2.72;;;7.40;99.90;;;7.24;100.00;99030.06;4977304;28;20241;-77
2023/01/09 10:41:02;;;;;;;13.00;2.83;;;7.30;99.90;;;7.30;100.00;99032.69;4979333;28;20212;-80
2023/01/09 10:43:42;;;;;;;12.05;2.72;;;7.30;99.90;;;7.35;100.00;99043.22;4980961;28;20208;-80
2023/01/09 10:46:40;;;;;;;12.07;2.70;;;7.30;99.90;;;7.43;100.00;99040.56;4984984;28;20232;-80
2023/01/09 10:49:21;;;;;;;13.75;3.05;;;7.40;99.90;;;7.34;100.00;99021.28;4979325;28;20241;-77
2023/01/09 10:52:12;;;;;;;10.15;2.25;;;7.40;99.90;;;7.41;100.00;99023.91;4983068;28;20213;-77
2023/01/09 10:55:11;;;;;;;25.00;5.22;;;7.40;99.90;;;7.49;100.00;99016.91;4979545;28;20304;-78